createdAt,value
2022-12-23T00:00:38.641Z,4.20
2022-12-23T00:03:05.752Z,7.05
2022-12-23T00:05:38.104Z,6.25
2022-12-23T00:08:06.356Z,6.93
2022-12-23T00:13:18.135Z,6.60
2022-12-23T00:15:44.857Z,5.72
2022-12-23T00:18:11.559Z,7.32
2022-12-23T00:20:38.275Z,6.10
2022-12-23T00:23:04.959Z,7.10
2022-12-23T00:25:42.258Z,5.10
2022-12-23T00:28:14.866Z,7.45
2022-12-23T00:30:46.829Z,6.15
2022-12-23T00:33:19.729Z,6.22
2022-12-23T00:35:47.176Z,6.35
2022-12-23T00:38:14.039Z,6.20
2022-12-23T00:40:59.175Z,5.93
2022-12-23T00:43:25.872Z,6.18
2022-12-23T00:45:52.773Z,6.45
2022-12-23T00:48:37.834Z,4.97
2022-12-23T00:51:04.676Z,6.18
2022-12-23T00:53:31.473Z,7.35
2022-12-23T00:55:58.180Z,6.32
2022-12-23T00:58:25.886Z,7.30
2022-12-23T01:01:12.619Z,6.95
2022-12-23T01:03:57.998Z,7.00
2022-12-23T01:06:24.686Z,6.72
2022-12-23T01:08:51.375Z,7.55
2022-12-23T01:11:18.041Z,7.43
2022-12-23T01:13:44.745Z,6.53
2022-12-23T01:16:17.280Z,7.38
2022-12-23T01:18:45.270Z,7.05
2022-12-23T01:21:12.576Z,6.82
2022-12-23T01:23:39.466Z,6.05
2022-12-23T01:26:07.706Z,7.97
2022-12-23T01:28:35.849Z,8.70
2022-12-23T01:31:05.555Z,8.23
2022-12-23T01:33:33.467Z,6.88
2022-12-23T01:40:55.175Z,6.87
2022-12-23T01:43:22.429Z,6.67
2022-12-23T01:45:49.592Z,6.95
2022-12-23T01:48:22.185Z,7.28
2022-12-23T01:50:53.914Z,7.18
2022-12-23T01:53:25.516Z,6.88
2022-12-23T01:55:57.280Z,5.57
2022-12-23T01:58:40.378Z,7.07
2022-12-23T02:01:26.630Z,6.97
2022-12-23T02:03:57.790Z,6.93
2022-12-23T02:06:45.268Z,7.05
2022-12-23T02:09:28.071Z,7.38
2022-12-23T02:12:09.766Z,6.40
2022-12-23T02:15:32.456Z,6.20
2022-12-23T02:18:23.408Z,6.97
2022-12-23T02:21:02.929Z,6.25
2022-12-23T02:23:47.844Z,6.72
2022-12-23T02:26:32.885Z,6.78
2022-12-23T02:29:17.843Z,6.43
2022-12-23T02:31:53.234Z,7.18
2022-12-23T02:34:22.319Z,7.10
2022-12-23T02:37:16.527Z,7.80
2022-12-23T02:40:02.231Z,5.82
2022-12-23T02:42:37.211Z,6.32
2022-12-23T02:45:14.530Z,5.20
2022-12-23T02:47:47.743Z,5.43
2022-12-23T02:50:20.790Z,4.43
2022-12-23T02:52:49.545Z,5.15
2022-12-23T02:55:24.617Z,6.15
2022-12-23T02:57:55.173Z,6.63
2022-12-23T03:00:22.825Z,5.47
2022-12-23T03:02:49.775Z,6.45
2022-12-23T03:05:44.686Z,6.22
2022-12-23T03:08:19.169Z,7.40
2022-12-23T03:10:48.605Z,5.72
2022-12-23T03:13:15.198Z,6.05
2022-12-23T03:16:24.751Z,6.70
2022-12-23T03:18:54.640Z,5.70
2022-12-23T03:21:34.257Z,6.68
2022-12-23T03:24:45.466Z,6.95
2022-12-23T03:27:24.027Z,5.85
2022-12-23T03:30:02.413Z,7.07
2022-12-23T03:32:35.761Z,5.95
2022-12-23T03:35:06.011Z,6.97
2022-12-23T03:37:37.421Z,7.15
2022-12-23T03:40:10.422Z,6.35
2022-12-23T03:42:41.449Z,6.30
2022-12-23T03:45:40.848Z,7.25
2022-12-23T03:48:29.494Z,7.13
2022-12-23T03:51:14.553Z,6.80
2022-12-23T03:53:46.889Z,7.38
2022-12-23T03:56:19.079Z,6.07
2022-12-23T03:59:10.157Z,7.50
2022-12-23T04:02:06.856Z,7.15
2022-12-23T04:05:00.197Z,6.68
2022-12-23T04:07:45.125Z,6.95
2022-12-23T04:10:13.373Z,6.57
2022-12-23T04:12:40.624Z,7.57
2022-12-23T04:15:12.773Z,7.57
2022-12-23T04:17:40.502Z,7.85
2022-12-23T04:20:07.968Z,7.28
2022-12-23T04:22:34.696Z,7.30
2022-12-23T04:25:01.394Z,6.03
2022-12-23T04:27:28.109Z,7.63
2022-12-23T04:29:54.834Z,6.45
2022-12-23T04:32:21.602Z,6.13
2022-12-23T04:34:48.282Z,7.38
2022-12-23T04:37:14.987Z,7.72
2022-12-23T04:39:41.691Z,7.43
2022-12-23T04:42:08.423Z,7.32
2022-12-23T04:44:35.172Z,8.15
2022-12-23T04:47:01.979Z,7.70
2022-12-23T04:49:28.723Z,5.63
2022-12-23T04:51:55.380Z,6.63
2022-12-23T04:54:22.216Z,8.02
2022-12-23T04:56:48.996Z,7.45
2022-12-23T04:59:15.754Z,8.32
2022-12-23T05:01:42.970Z,8.13
2022-12-23T05:04:10.576Z,8.15
2022-12-23T05:06:37.877Z,8.15
2022-12-23T05:09:05.967Z,7.72
2022-12-23T05:11:37.083Z,8.02
2022-12-23T05:14:07.014Z,9.02
2022-12-23T05:16:34.316Z,7.55
2022-12-23T05:19:01.163Z,8.65
2022-12-23T05:21:28.083Z,8.50
2022-12-23T05:23:55.021Z,8.07
2022-12-23T05:26:21.867Z,7.82
2022-12-23T05:28:48.616Z,8.55
2022-12-23T05:31:17.028Z,8.82
2022-12-23T05:33:43.956Z,8.18
2022-12-23T05:36:11.743Z,7.07
2022-12-23T05:38:38.498Z,7.80
2022-12-23T05:41:05.927Z,7.78
2022-12-23T05:43:32.639Z,7.40
2022-12-23T05:45:59.380Z,7.32
2022-12-23T05:48:26.172Z,7.05
2022-12-23T05:50:53.506Z,7.05
2022-12-23T05:53:20.972Z,6.85
2022-12-23T05:55:48.216Z,5.95
2022-12-23T05:58:15.080Z,7.43
2022-12-23T06:00:41.913Z,2.72
2022-12-23T06:03:08.846Z,5.50
2022-12-23T06:05:37.779Z,5.67
2022-12-23T06:08:05.055Z,5.50
2022-12-23T06:10:31.865Z,6.38
2022-12-23T06:12:58.914Z,5.60
2022-12-23T06:15:25.731Z,5.30
2022-12-23T06:17:52.484Z,6.57
2022-12-23T06:20:20.944Z,6.47
2022-12-23T06:22:50.612Z,6.38
2022-12-23T06:25:17.391Z,5.25
2022-12-23T06:27:44.387Z,3.90
2022-12-23T06:30:11.256Z,5.80
2022-12-23T06:32:38.985Z,5.80
2022-12-23T06:37:33.162Z,3.78
2022-12-23T06:39:59.920Z,3.72
2022-12-23T06:42:26.648Z,3.80
2022-12-23T06:44:53.423Z,4.03
2022-12-23T06:47:20.216Z,6.55
2022-12-23T06:49:46.919Z,18.38
2022-12-23T06:52:13.740Z,4.38
2022-12-23T06:54:40.505Z,9.77
2022-12-23T06:57:07.176Z,4.55
2022-12-23T06:59:33.981Z,4.75
2022-12-23T07:02:00.881Z,6.15
2022-12-23T07:04:27.734Z,5.33
2022-12-23T07:06:54.414Z,5.28
2022-12-23T07:09:21.178Z,17.50
2022-12-23T07:11:47.914Z,5.53
2022-12-23T07:14:14.713Z,4.15
2022-12-23T07:16:41.527Z,4.60
2022-12-23T07:19:08.362Z,3.95
2022-12-23T07:21:36.717Z,4.18
2022-12-23T07:24:03.616Z,4.60
2022-12-23T07:26:30.380Z,4.20
2022-12-23T07:28:57.083Z,4.35
2022-12-23T07:31:23.926Z,4.80
2022-12-23T07:33:50.772Z,4.43
2022-12-23T07:36:17.882Z,4.25
2022-12-23T07:38:44.685Z,4.30
2022-12-23T07:41:11.539Z,5.53
2022-12-23T07:43:38.278Z,5.50
2022-12-23T07:46:09.756Z,5.50
2022-12-23T07:48:36.766Z,6.05
2022-12-23T07:51:04.624Z,6.07
2022-12-23T07:53:31.661Z,5.50
2022-12-23T07:55:58.415Z,5.33
2022-12-23T07:58:25.658Z,5.38
2022-12-23T08:00:59.469Z,5.47
2022-12-23T08:03:26.337Z,6.03
2022-12-23T08:06:00.726Z,5.80
2022-12-23T08:08:27.457Z,5.07
2022-12-23T08:11:11.742Z,5.40
2022-12-23T08:13:40.493Z,5.18
2022-12-23T08:16:08.012Z,5.28
2022-12-23T08:18:37.271Z,4.90
2022-12-23T08:21:07.108Z,5.05
2022-12-23T08:23:36.761Z,5.15
2022-12-23T08:26:12.926Z,4.80
2022-12-23T08:28:41.172Z,4.78
2022-12-23T08:31:24.900Z,6.03
2022-12-23T08:34:01.088Z,6.20
2022-12-23T08:36:31.135Z,5.60
2022-12-23T08:39:06.623Z,6.75
2022-12-23T08:41:42.424Z,6.55
2022-12-23T08:44:13.604Z,6.88
2022-12-23T08:46:40.756Z,6.45
2022-12-23T08:49:08.584Z,6.60
2022-12-23T08:51:36.740Z,6.70
2022-12-23T08:54:04.516Z,7.82
2022-12-23T08:56:36.182Z,7.28
2022-12-23T08:59:03.740Z,7.07
2022-12-23T09:01:34.836Z,6.05
2022-12-23T09:04:04.128Z,6.88
2022-12-23T09:06:38.082Z,6.72
2022-12-23T09:09:05.687Z,6.60
2022-12-23T09:11:33.569Z,6.32
2022-12-23T09:16:28.420Z,6.32
2022-12-23T09:18:55.682Z,7.20
2022-12-23T09:21:23.423Z,6.50
2022-12-23T09:23:51.204Z,6.30
2022-12-23T09:26:21.077Z,5.80
2022-12-23T09:28:47.817Z,6.07
2022-12-23T09:31:15.518Z,6.60
2022-12-23T09:33:42.590Z,7.20
2022-12-23T09:36:09.430Z,7.90
2022-12-23T09:38:36.351Z,7.38
2022-12-23T09:41:22.041Z,6.53
2022-12-23T09:44:07.236Z,6.10
2022-12-23T09:46:35.787Z,6.22
2022-12-23T09:49:16.654Z,6.57
2022-12-23T09:51:45.041Z,6.32
2022-12-23T09:54:31.557Z,6.30
2022-12-23T09:57:03.753Z,5.78
2022-12-23T09:59:55.527Z,5.20
2022-12-23T10:02:25.351Z,5.53
2022-12-23T10:05:02.926Z,5.68
2022-12-23T10:07:33.883Z,5.28
2022-12-23T10:10:07.763Z,5.07
2022-12-23T10:12:42.729Z,5.38
2022-12-23T10:15:25.994Z,5.10
2022-12-23T10:17:58.031Z,4.97
2022-12-23T10:20:47.333Z,5.68
2022-12-23T10:23:20.890Z,4.88
2022-12-23T10:25:52.031Z,5.70
2022-12-23T10:28:21.079Z,5.63
2022-12-23T10:34:04.151Z,6.55
2022-12-23T10:36:48.445Z,6.78
2022-12-23T10:39:30.924Z,8.05
2022-12-23T10:42:05.094Z,5.65
2022-12-23T10:44:43.925Z,6.57
2022-12-23T10:47:16.443Z,5.80
2022-12-23T10:49:53.017Z,5.85
2022-12-23T10:52:23.522Z,5.35
2022-12-23T10:54:50.210Z,5.72
2022-12-23T10:57:19.123Z,5.47
2022-12-23T10:59:46.097Z,4.65
2022-12-23T11:02:12.907Z,5.50
2022-12-23T11:04:44.493Z,5.55
2022-12-23T11:07:44.663Z,5.10
2022-12-23T11:10:21.792Z,5.30
2022-12-23T11:12:51.506Z,4.70
2022-12-23T11:15:33.243Z,5.40
2022-12-23T11:18:25.292Z,4.75
2022-12-23T11:21:04.530Z,4.70
2022-12-23T11:23:35.937Z,5.03
2022-12-23T11:26:10.085Z,5.25
2022-12-23T11:28:48.343Z,6.05
2022-12-23T11:31:17.018Z,8.35
2022-12-23T11:34:03.025Z,8.30
2022-12-23T11:36:32.220Z,6.50
2022-12-23T11:39:14.822Z,8.02
2022-12-23T11:41:47.807Z,5.13
2022-12-23T11:44:17.267Z,5.70
2022-12-23T11:46:43.985Z,5.88
2022-12-23T11:49:21.694Z,6.03
2022-12-23T11:52:13.853Z,5.75
2022-12-23T11:54:40.661Z,5.32
2022-12-23T11:57:16.423Z,5.35
2022-12-23T11:59:50.509Z,5.10
2022-12-23T12:02:40.221Z,6.47
2022-12-23T12:05:21.231Z,8.65
2022-12-23T12:07:49.363Z,11.48
2022-12-23T12:10:19.275Z,12.55
2022-12-23T12:12:51.327Z,14.38
2022-12-23T12:15:57.854Z,10.70
2022-12-23T12:18:26.165Z,9.00
2022-12-23T12:21:00.852Z,8.65
2022-12-23T12:23:37.717Z,8.38
2022-12-23T12:26:27.175Z,7.97
2022-12-23T12:29:03.149Z,6.97
2022-12-23T12:31:41.063Z,7.43
2022-12-23T12:34:29.299Z,6.85
2022-12-23T12:37:04.602Z,6.07
2022-12-23T12:39:54.244Z,5.93
2022-12-23T12:42:35.193Z,6.03
2022-12-23T12:45:29.841Z,6.05
2022-12-23T12:48:18.305Z,6.18
2022-12-23T12:50:59.471Z,6.60
2022-12-23T12:53:28.284Z,7.38
2022-12-23T12:56:08.408Z,7.20
2022-12-23T12:58:35.172Z,7.70
2022-12-23T13:01:17.254Z,7.53
2022-12-23T13:03:46.985Z,7.72
2022-12-23T13:06:52.057Z,7.47
2022-12-23T13:09:36.051Z,7.28
2022-12-23T13:12:19.211Z,7.38
2022-12-23T13:15:09.934Z,7.05
2022-12-23T13:17:53.255Z,7.25
2022-12-23T13:20:35.085Z,7.47
2022-12-23T13:23:42.380Z,6.55
2022-12-23T13:26:15.442Z,6.10
2022-12-23T13:28:55.915Z,5.13
2022-12-23T13:31:30.538Z,4.95
2022-12-23T13:34:09.087Z,5.85
2022-12-23T13:37:27.683Z,5.22
2022-12-23T13:40:12.100Z,3.67
2022-12-23T13:42:45.952Z,3.05
2022-12-23T13:45:18.652Z,3.17
2022-12-23T13:48:05.260Z,3.53
2022-12-23T13:51:00.231Z,3.15
2022-12-23T13:53:47.463Z,3.58
2022-12-23T13:56:42.467Z,3.50
2022-12-23T13:59:25.742Z,2.38
2022-12-23T14:01:58.552Z,1.50
2022-12-23T14:04:33.081Z,2.45
2022-12-23T14:07:54.959Z,2.25
2022-12-23T14:10:24.382Z,1.85
2022-12-23T14:12:53.088Z,2.47
2022-12-23T14:15:31.508Z,5.78
2022-12-23T14:18:28.802Z,7.75
2022-12-23T14:21:08.549Z,1.90
2022-12-23T14:24:00.863Z,1.20
2022-12-23T14:26:54.998Z,1.40
2022-12-23T14:29:45.899Z,2.08
2022-12-23T14:32:28.334Z,3.80
2022-12-23T14:35:26.749Z,11.05
2022-12-23T14:38:13.905Z,3.13
2022-12-23T14:40:43.552Z,2.03
2022-12-23T14:43:27.232Z,1.77
2022-12-23T14:46:01.689Z,4.50
2022-12-23T14:48:34.586Z,2.25
2022-12-23T14:51:08.875Z,1.40
2022-12-23T14:53:58.694Z,1.23
2022-12-23T14:56:57.216Z,0.80
2022-12-23T14:59:32.082Z,1.63
2022-12-23T15:02:14.717Z,1.67
2022-12-23T15:04:58.679Z,1.92
2022-12-23T15:07:34.072Z,9.23
2022-12-23T15:10:21.936Z,3.60
2022-12-23T15:12:54.498Z,1.60
2022-12-23T15:15:26.673Z,1.35
2022-12-23T15:18:04.794Z,1.20
2022-12-23T15:20:31.992Z,1.40
2022-12-23T15:23:08.230Z,2.13
2022-12-23T15:26:35.356Z,1.67
2022-12-23T15:28:50.075Z,0.95
2022-12-23T15:31:27.216Z,1.50
2022-12-23T15:34:04.639Z,1.00
2022-12-23T15:37:09.069Z,2.03
2022-12-23T15:40:15.415Z,1.73
2022-12-23T15:42:51.133Z,0.80
2022-12-23T15:45:35.738Z,1.60
2022-12-23T15:48:14.952Z,1.40
2022-12-23T15:50:51.797Z,2.22
2022-12-23T15:53:22.579Z,2.90
2022-12-23T15:55:56.747Z,1.80
2022-12-23T15:58:48.899Z,1.15
2022-12-23T16:01:17.936Z,1.80
2022-12-23T16:03:58.555Z,1.77
2022-12-23T16:06:32.099Z,1.60
2022-12-23T16:09:07.734Z,2.13
2022-12-23T16:12:05.396Z,1.65
2022-12-23T16:14:42.276Z,1.75
2022-12-23T16:17:18.593Z,1.83
2022-12-23T16:19:56.121Z,2.17
2022-12-23T16:22:37.659Z,2.25
2022-12-23T16:25:25.029Z,1.95
2022-12-23T16:28:02.845Z,1.63
2022-12-23T16:33:22.912Z,1.67
2022-12-23T16:35:49.744Z,1.63
2022-12-23T16:38:19.981Z,2.10
2022-12-23T16:40:59.762Z,1.80
2022-12-23T16:43:26.655Z,1.83
2022-12-23T16:45:56.609Z,2.03
2022-12-23T16:48:33.852Z,2.60
2022-12-23T16:51:01.809Z,1.67
2022-12-23T16:56:00.900Z,2.42
2022-12-23T16:58:28.669Z,2.53
2022-12-23T17:00:55.985Z,2.65
2022-12-23T17:03:22.959Z,2.85
2022-12-23T17:05:49.714Z,2.08
2022-12-23T17:08:19.032Z,2.15
2022-12-23T17:10:46.347Z,3.38
2022-12-23T17:13:16.157Z,7.68
2022-12-23T17:15:43.109Z,3.97
2022-12-23T17:18:15.849Z,3.03
2022-12-23T17:20:45.233Z,5.28
2022-12-23T17:23:37.750Z,6.88
2022-12-23T17:26:04.579Z,3.00
2022-12-23T17:28:32.848Z,3.63
2022-12-23T17:31:00.584Z,3.65
2022-12-23T17:33:31.213Z,3.25
2022-12-23T17:35:58.521Z,2.15
2022-12-23T17:38:30.031Z,3.10
2022-12-23T17:40:58.603Z,3.70
2022-12-23T17:43:25.435Z,2.42
2022-12-23T17:45:54.837Z,3.58
2022-12-23T17:48:31.172Z,3.33
2022-12-23T17:50:58.403Z,2.30
2022-12-23T17:53:25.237Z,2.28
2022-12-23T17:55:51.977Z,3.55
2022-12-23T17:58:19.876Z,3.05
2022-12-23T18:00:46.723Z,9.20
2022-12-23T18:03:23.715Z,18.70
2022-12-23T18:05:53.119Z,3.90
2022-12-23T18:08:26.005Z,2.42
2022-12-23T18:10:52.856Z,7.80
2022-12-23T18:13:20.602Z,3.38
2022-12-23T18:15:47.833Z,2.42
2022-12-23T18:18:19.085Z,3.20
2022-12-23T18:20:53.442Z,2.60
2022-12-23T18:23:31.712Z,3.38
2022-12-23T18:25:59.659Z,2.15
2022-12-23T18:28:27.112Z,2.55
2022-12-23T18:30:56.554Z,3.38
2022-12-23T18:33:28.640Z,4.28
2022-12-23T18:35:55.882Z,2.35
2022-12-23T18:38:23.045Z,3.10
2022-12-23T18:40:52.469Z,3.27
2022-12-23T18:43:28.146Z,3.10
2022-12-23T18:45:54.862Z,2.55
2022-12-23T18:48:28.837Z,3.05
2022-12-23T18:50:55.577Z,2.95
2022-12-23T18:53:25.314Z,3.40
2022-12-23T18:55:53.836Z,2.75
2022-12-23T18:58:21.264Z,3.85
2022-12-23T19:00:49.934Z,3.28
2022-12-23T19:03:29.553Z,1.65
2022-12-23T19:05:57.844Z,1.95
2022-12-23T19:08:27.668Z,3.03
2022-12-23T19:10:55.662Z,2.58
2022-12-23T19:13:22.907Z,5.40
2022-12-23T19:15:50.316Z,34.55
2022-12-23T19:18:20.282Z,10.80
2022-12-23T19:20:48.527Z,3.38
2022-12-23T19:23:16.506Z,2.30
2022-12-23T19:28:21.778Z,3.60
2022-12-23T19:31:26.996Z,5.68
2022-12-23T19:33:56.633Z,3.60
2022-12-23T19:36:23.708Z,3.00
2022-12-23T19:38:51.330Z,4.60
2022-12-23T19:41:18.640Z,2.75
2022-12-23T19:43:46.575Z,3.00
2022-12-23T19:48:43.968Z,4.53
2022-12-23T19:51:14.624Z,7.55
2022-12-23T19:53:42.245Z,4.95
2022-12-23T19:56:13.402Z,2.92
2022-12-23T19:58:41.977Z,3.28
2022-12-23T20:01:12.346Z,2.55
2022-12-23T20:03:40.690Z,3.72
2022-12-23T20:06:14.241Z,3.83
2022-12-23T20:08:41.050Z,2.45
2022-12-23T20:11:13.209Z,3.40
2022-12-23T20:13:40.376Z,2.97
2022-12-23T20:16:07.852Z,2.63
2022-12-23T20:18:34.943Z,2.83
2022-12-23T20:21:02.172Z,2.58
2022-12-23T20:23:29.567Z,1.80
2022-12-23T20:25:56.401Z,3.08
2022-12-23T20:28:23.714Z,2.40
2022-12-23T20:31:06.995Z,2.58
2022-12-23T20:33:35.576Z,2.97
2022-12-23T20:36:03.318Z,3.55
2022-12-23T20:38:30.057Z,2.15
2022-12-23T20:40:56.756Z,2.85
2022-12-23T20:43:23.504Z,2.47
2022-12-23T20:45:52.041Z,2.13
2022-12-23T20:48:19.139Z,2.03
2022-12-23T20:50:45.995Z,3.17
2022-12-23T20:53:12.735Z,2.47
2022-12-23T20:55:39.519Z,3.90
2022-12-23T20:58:24.754Z,3.10
2022-12-23T21:00:51.495Z,1.70
2022-12-23T21:03:18.396Z,2.33
2022-12-23T21:05:45.424Z,2.05
2022-12-23T21:08:12.501Z,2.70
2022-12-23T21:10:39.576Z,2.27
2022-12-23T21:13:06.475Z,2.15
2022-12-23T21:15:35.917Z,1.95
2022-12-23T21:18:02.634Z,4.97
2022-12-23T21:20:29.353Z,5.47
2022-12-23T21:22:56.148Z,2.70
2022-12-23T21:25:22.911Z,2.60
2022-12-23T21:27:50.862Z,3.05
2022-12-23T21:30:17.775Z,2.75
2022-12-23T21:32:44.497Z,3.33
2022-12-23T21:35:11.325Z,1.90
2022-12-23T21:37:38.105Z,2.25
2022-12-23T21:40:05.388Z,3.13
2022-12-23T21:42:32.052Z,1.63
2022-12-23T21:44:58.812Z,2.83
2022-12-23T21:47:25.594Z,2.85
2022-12-23T21:49:52.269Z,2.20
2022-12-23T21:52:18.966Z,2.42
2022-12-23T21:54:46.126Z,3.10
2022-12-23T21:57:12.818Z,1.88
2022-12-23T21:59:39.554Z,1.98
2022-12-23T22:02:06.821Z,2.10
2022-12-23T22:04:33.512Z,1.80
2022-12-23T22:07:00.204Z,2.67
2022-12-23T22:09:26.915Z,2.40
2022-12-23T22:11:53.634Z,2.75
2022-12-23T22:14:20.767Z,2.97
2022-12-23T22:16:47.583Z,2.35
2022-12-23T22:19:14.643Z,2.67
2022-12-23T22:21:42.606Z,2.07
2022-12-23T22:24:09.850Z,3.75
2022-12-23T22:26:36.676Z,2.27
2022-12-23T22:29:05.728Z,2.75
2022-12-23T22:31:49.211Z,2.78
2022-12-23T22:34:19.008Z,2.13
2022-12-23T22:36:46.872Z,2.00
2022-12-23T22:41:47.699Z,2.65
2022-12-23T22:44:15.059Z,2.35
2022-12-23T22:46:41.874Z,2.15
2022-12-23T22:49:12.151Z,2.05
2022-12-23T22:51:40.419Z,2.17
2022-12-23T22:54:07.709Z,2.00
2022-12-23T22:56:34.411Z,2.47
2022-12-23T22:59:01.060Z,2.83
2022-12-23T23:01:34.548Z,2.15
2022-12-23T23:04:02.533Z,2.42
2022-12-23T23:08:58.164Z,1.73
2022-12-23T23:11:26.795Z,2.28
2022-12-23T23:13:54.357Z,3.00
2022-12-23T23:16:21.934Z,2.05
2022-12-23T23:18:49.042Z,2.60
2022-12-23T23:21:15.757Z,1.80
2022-12-23T23:23:42.603Z,2.83
2022-12-23T23:26:10.234Z,2.50
2022-12-23T23:28:39.344Z,2.83
2022-12-23T23:31:40.556Z,2.72
2022-12-23T23:33:54.347Z,3.33
2022-12-23T23:36:21.087Z,1.75
2022-12-23T23:38:47.807Z,3.33
2022-12-23T23:41:18.899Z,2.33
2022-12-23T23:43:49.440Z,3.30
2022-12-23T23:46:16.199Z,3.10
2022-12-23T23:48:42.892Z,2.78
2022-12-23T23:51:09.610Z,2.95
2022-12-23T23:53:36.299Z,1.98
2022-12-23T23:56:05.930Z,2.58
2022-12-23T23:58:33.577Z,2.38
